Time;durP1;ratioP1;P1;durP2;ratioP2;P2;SDS_P1;SDS_P2;PMS_P1;PMS_P2;Temp;Humidity;BMP_temperature;BMP_pressure;BME280_temperature;BME280_humidity;BME280_pressure;Samples;Min_cycle;Max_cycle;Signal;HPM_P1;HPM_P2
2023/10/01 14:08:58;;;;;;;;;6.67;5.67;;;;;20.86;46.52;100191.94;6345946;20;2744179;-50
2023/10/01 14:11:39;;;;;;;;;6.60;4.40;;;;;20.60;45.88;100203.47;6364880;20;2750291;-54
2023/10/01 14:14:16;;;;;;;;;8.60;7.60;;;;;20.68;46.58;100192.69;6332919;20;2744369;-57
2023/10/01 14:17:12;;;;;;;;;4.20;3.80;;;;;20.33;46.53;100183.22;6330539;20;2743028;-54
2023/10/01 14:19:41;;;;;;;;;4.00;4.00;;;;;20.25;46.76;100184.94;6362104;20;2738854;-57
2023/10/01 14:22:19;;;;;;;;;5.20;4.40;;;;;20.52;46.18;100186.94;6365484;20;2748241;-56
2023/10/01 14:24:49;;;;;;;;;4.67;3.67;;;;;20.58;46.48;100184.50;6336304;20;2756577;-56
2023/10/01 14:27:26;;;;;;;;;5.40;4.00;;;;;20.47;46.13;100179.19;6362151;20;2750321;-55
2023/10/01 14:32:45;;;;;;;;;11.67;8.33;;;;;20.33;47.08;100175.06;6312990;20;2763918;-57
2023/10/01 14:35:16;;;;;;;;;6.33;4.67;;;;;20.41;46.51;100171.59;6340092;20;2745633;-56
2023/10/01 14:37:55;;;;;;;;;3.60;3.40;;;;;20.58;46.00;100165.41;6366158;20;2739917;-57
2023/10/01 14:40:27;;;;;;;;;5.00;2.33;;;;;20.51;45.60;100157.91;6337372;20;2746160;-55
2023/10/01 14:42:59;;;;;;;;;3.80;2.80;;;;;20.67;45.72;100163.69;6366642;20;2743105;-55
2023/10/01 14:45:33;;;;;;;;;4.80;3.40;;;;;20.57;45.79;100165.56;6363818;20;2739946;-54
2023/10/01 14:48:06;;;;;;;;;5.80;5.60;;;;;20.63;46.62;100162.25;6365974;20;2745092;-56
2023/10/01 14:50:40;;;;;;;;;5.20;4.60;;;;;20.66;45.34;100172.84;6334092;20;2744067;-56
2023/10/01 14:53:13;;;;;;;;;5.60;2.60;;;;;20.83;45.60;100172.09;6331329;20;2734737;-54
2023/10/01 14:55:44;;;;;;;;;2.80;2.60;;;;;20.84;44.87;100164.75;6361132;20;2739873;-53
2023/10/01 14:58:15;;;;;;;;;5.20;3.80;;;;;20.89;44.85;100167.06;6330129;20;2756616;-53
2023/10/01 15:00:52;;;;;;;;;3.75;2.75;;;;;20.92;44.49;100158.56;6324663;20;1916984;-53
2023/10/01 15:03:34;;;;;;;;;3.20;2.60;;;;;20.86;44.27;100160.03;6358057;20;2746081;-53
2023/10/01 15:06:10;;;;;;;;;5.00;3.80;;;;;20.83;45.86;100166.63;6358206;20;2747161;-55
2023/10/01 15:08:39;;;;;;;;;3.40;1.60;;;;;20.79;45.48;100167.94;6326477;20;2746111;-56
2023/10/01 15:11:11;;;;;;;;;7.60;5.60;;;;;20.76;45.57;100170.97;6314554;20;2748241;-52
2023/10/01 15:13:47;;;;;;;;;7.80;5.40;;;;;20.43;45.62;100160.53;6308386;20;2739894;-52
2023/10/01 15:16:19;;;;;;;;;4.00;2.60;;;;;20.57;45.83;100162.84;6300436;20;2742048;-54
2023/10/01 15:19:08;;;;;;;;;5.20;5.20;;;;;20.81;45.53;100171.38;6337801;20;2736899;-57
2023/10/01 15:21:42;;;;;;;;;11.67;9.00;;;;;20.76;44.96;100165.50;6313293;20;2769060;-58
2023/10/01 15:24:11;;;;;;;;;8.67;7.67;;;;;20.70;45.66;100174.28;6320862;20;2754464;-56
2023/10/01 15:26:43;;;;;;;;;10.67;8.00;;;;;20.57;45.09;100171.03;6311878;20;2765929;-57
2023/10/01 15:29:12;;;;;;;;;6.33;5.00;;;;;20.44;45.70;100162.25;6314760;20;2744001;-56
2023/10/01 15:31:51;;;;;;;;;9.00;5.40;;;;;20.48;46.27;100169.13;6334139;20;2727400;-55
2023/10/01 15:34:20;;;;;;;;;12.67;7.33;;;;;20.30;46.16;100172.63;6309063;20;3476413;-54
2023/10/01 15:36:50;;;;;;;;;13.00;9.33;;;;;20.15;46.97;100166.72;6317597;20;2774318;-56
2023/10/01 15:39:27;;;;;;;;;10.67;9.00;;;;;19.91;48.15;100166.31;6307589;20;2775388;-52
2023/10/01 15:42:15;;;;;;;;;3.20;3.20;;;;;19.81;47.71;100174.47;6338496;20;2746284;-59
2023/10/01 15:44:59;;;;;;;;;8.60;3.00;;;;;19.68;48.42;100171.16;6336809;20;2756640;-57
2023/10/01 15:47:42;;;;;;;;;8.20;3.20;;;;;19.53;50.01;100167.94;6305701;20;2752415;-56
2023/10/01 15:50:25;;;;;;;;;5.60;4.00;;;;;19.16;50.86;100167.69;6305695;20;2750456;-56
2023/10/01 15:52:55;;;;;;;;;4.20;3.00;;;;;18.97;51.97;100172.06;6304571;20;2752370;-56
2023/10/01 15:55:32;;;;;;;;;3.67;3.67;;;;;18.94;53.80;100180.50;6311102;20;2750334;-57
2023/10/01 15:58:04;;;;;;;;;4.40;3.20;;;;;18.78;54.52;100178.28;6338980;20;2753405;-57
2023/10/01 16:00:37;;;;;;;;;8.20;5.60;;;;;18.51;55.11;100181.53;6303637;20;2751340;-57
2023/10/01 16:03:12;;;;;;;;;4.80;4.80;;;;;18.41;56.51;100172.44;6304597;20;2754470;-56
2023/10/01 16:05:45;;;;;;;;;6.60;4.00;;;;;18.22;57.19;100186.75;6304090;20;2756566;-58
2023/10/01 16:08:20;;;;;;;;;4.20;4.20;;;;;17.97;59.67;100177.09;6297387;20;2756563;-56
2023/10/01 16:10:59;;;;;;;;;7.67;5.67;;;;;17.75;61.21;100168.03;6276091;20;2743058;-56
2023/10/01 16:13:36;;;;;;;;;12.00;6.00;;;;;17.55;63.55;100185.09;6302972;20;2782627;-59
2023/10/01 16:16:08;;;;;;;;;10.00;6.00;;;;;17.47;64.99;100190.31;6318015;20;2753857;-56
2023/10/01 16:18:44;;;;;;;;;7.80;6.00;;;;;17.24;66.81;100182.19;6333617;20;2729520;-57
2023/10/01 16:21:18;;;;;;;;;5.80;4.00;;;;;17.01;67.93;100183.19;6333303;20;2747200;-57
2023/10/01 16:23:53;;;;;;;;;4.40;3.00;;;;;16.82;69.19;100190.06;6302210;20;2741972;-54
2023/10/01 16:26:24;;;;;;;;;8.60;4.80;;;;;16.52;71.13;100193.34;6336390;20;2747150;-57
2023/10/01 16:28:55;;;;;;;;;26.33;22.00;;;;;16.15;71.44;100189.91;6277585;20;3591937;-56
2023/10/01 16:31:28;;;;;;;;;37.33;26.33;;;;;16.10;71.86;100194.81;6277934;20;3603472;-57
2023/10/01 16:33:59;;;;;;;;;27.67;25.33;;;;;16.24;71.08;100197.31;6308509;20;3583704;-58
2023/10/01 16:36:38;;;;;;;;;30.33;18.00;;;;;16.43;68.19;100197.66;6279602;20;3619060;-59
2023/10/01 16:39:16;;;;;;;;;12.00;10.50;;;;;16.81;64.95;100204.63;6284003;20;2785686;-59
2023/10/01 16:41:49;;;;;;;;;11.80;8.00;;;;;16.74;64.66;100211.50;6307299;20;2775332;-58
2023/10/01 16:44:19;;;;;;;;;109.33;90.33;;;;;16.58;64.63;100209.13;6279314;20;3694022;-61
2023/10/01 16:46:57;;;;;;;;;25.33;22.67;;;;;16.25;68.15;100212.63;6273083;20;3582800;-57
2023/10/01 16:49:28;;;;;;;;;35.00;30.00;;;;;16.01;69.88;100216.22;6276957;20;3606555;-57
2023/10/01 16:51:57;;;;;;;;;15.00;14.00;;;;;16.42;67.96;100219.44;6302893;20;3522184;-57
2023/10/01 16:54:38;;;;;;;;;86.63;75.50;;;;;15.87;70.98;100219.09;6306504;20;3682532;-58
2023/10/01 16:57:11;;;;;;;;;26.67;24.00;;;;;15.66;71.86;100226.06;6276255;20;3603409;-58
2023/10/01 16:59:56;;;;;;;;;7.50;6.00;;;;;16.36;65.32;100237.03;6280609;20;2739862;-59
2023/10/01 17:02:28;;;;;;;;;5.00;5.00;;;;;16.63;61.88;100233.16;6282356;20;2745086;-58
2023/10/01 17:05:06;;;;;;;;;11.00;9.33;;;;;16.30;63.77;100236.63;6279002;20;2781620;-58
2023/10/01 17:07:42;;;;;;;;;10.80;6.40;;;;;16.15;65.96;100234.13;6338727;20;2762813;-59
2023/10/01 17:10:13;;;;;;;;;39.67;28.67;;;;;15.79;68.11;100229.63;6282610;20;3613844;-58
2023/10/01 17:12:41;;;;;;;;;19.00;15.50;;;;;15.50;71.18;100238.03;6276852;20;2494045;-58
2023/10/01 17:15:41;;;;;;;;;16.00;13.50;;;;;15.44;71.25;100227.66;6278401;20;2492150;-57
2023/10/01 17:18:19;;;;;;;;;9.60;6.80;;;;;15.34;70.41;100229.31;6305144;20;2744016;-58
2023/10/01 17:20:53;;;;;;;;;6.00;4.00;;;;;15.18;70.43;100236.81;6276234;20;2756735;-59
2023/10/01 17:23:22;;;;;;;;;5.00;3.00;;;;;15.32;70.20;100244.78;6278931;20;2747149;-59
2023/10/01 17:25:58;;;;;;;;;4.50;4.00;;;;;15.30;71.07;100247.63;6281734;20;2754470;-58
2023/10/01 17:28:59;;;;;;;;;6.00;4.00;;;;;15.43;70.76;100241.28;6280563;20;2750285;-58
2023/10/01 17:31:39;;;;;;;;;5.00;4.00;;;;;15.83;69.34;100250.09;6275893;20;2754444;-59
2023/10/01 17:34:11;;;;;;;;;6.00;6.00;;;;;15.48;70.39;100250.84;6282833;20;2735764;-58
2023/10/01 17:36:39;;;;;;;;;7.50;3.00;;;;;15.67;69.92;100247.63;6277548;20;2754530;-57
2023/10/01 17:39:25;;;;;;;;;5.00;2.00;;;;;15.46;69.91;100251.91;6281091;20;2750243;-58
2023/10/01 17:41:59;;;;;;;;;11.00;7.00;;;;;14.96;72.74;100254.56;6279497;20;2751361;-56
2023/10/01 17:44:40;;;;;;;;;11.50;7.00;;;;;15.02;73.22;100254.13;6282621;20;2758639;-58
2023/10/01 17:47:19;;;;;;;;;9.00;6.00;;;;;15.06;73.97;100255.66;6280997;20;2723292;-58
2023/10/01 17:49:55;;;;;;;;;7.00;7.00;;;;;15.07;73.84;100254.66;6303666;20;2738869;-57
2023/10/01 17:52:25;;;;;;;;;9.00;9.00;;;;;15.24;72.16;100258.00;6306439;20;2744026;-57
2023/10/01 17:55:00;;;;;;;;;8.00;8.00;;;;;15.07;73.66;100251.97;6309727;20;2750358;-58
2023/10/01 17:57:38;;;;;;;;;10.00;10.00;;;;;15.11;72.84;100245.38;6281577;20;2796134;-57
2023/10/01 18:00:15;;;;;;;;;10.67;10.00;;;;;15.24;72.83;100249.88;6275639;20;2782582;-58
2023/10/01 18:02:45;;;;;;;;;7.60;7.20;;;;;15.10;72.50;100242.75;6334446;20;2748283;-58
2023/10/01 18:05:23;;;;;;;;;7.50;7.50;;;;;15.28;71.56;100249.56;6310586;20;2734780;-58
2023/10/01 18:07:56;;;;;;;;;65.50;46.50;;;;;14.99;72.08;100239.97;6283657;20;4392940;-57
2023/10/01 18:10:41;;;;;;;;;66.50;48.75;;;;;15.19;71.27;100254.75;6307503;20;3613808;-58
2023/10/01 18:13:21;;;;;;;;;60.00;41.50;;;;;15.31;69.65;100253.88;6306811;20;4406166;-58
2023/10/01 18:15:57;;;;;;;;;53.25;37.50;;;;;15.23;70.30;100250.88;6308211;20;4386717;-59
2023/10/01 18:18:28;;;;;;;;;32.00;23.67;;;;;15.26;69.37;100256.06;6308546;20;3606620;-57
2023/10/01 18:21:11;;;;;;;;;33.33;26.67;;;;;15.03;70.04;100255.84;6277301;20;3599303;-58
2023/10/01 18:23:42;;;;;;;;;37.67;28.00;;;;;14.91;71.01;100251.31;6277792;20;2850419;-58
2023/10/01 18:26:11;;;;;;;;;14.50;12.50;;;;;14.88;69.90;100263.22;6305600;20;2491986;-58
2023/10/01 18:28:41;;;;;;;;;14.67;13.33;;;;;14.75;70.37;100269.59;6275415;20;3524260;-58
2023/10/01 18:31:16;;;;;;;;;10.00;10.00;;;;;14.55;70.69;100263.72;6276341;20;3520078;-55
2023/10/01 18:33:48;;;;;;;;;20.00;16.00;;;;;14.65;71.05;100267.53;6308278;20;2827381;-58
2023/10/01 18:36:20;;;;;;;;;25.00;19.00;;;;;14.50;72.22;100274.81;6273231;20;2840907;-57
2023/10/01 18:38:48;;;;;;;;;20.33;11.67;;;;;14.39;73.68;100276.53;6276894;20;3553532;-57
2023/10/01 18:41:28;;;;;;;;;7.00;7.00;;;;;14.69;72.97;100268.16;6309495;20;2746084;-57
2023/10/01 18:43:56;;;;;;;;;5.00;5.00;;;;;14.55;74.46;100277.22;6280026;20;2736777;-56
2023/10/01 18:46:24;;;;;;;;;7.00;7.00;;;;;14.09;76.96;100280.31;6280070;20;2742994;-56
2023/10/01 18:48:52;;;;;;;;;7.00;7.00;;;;;13.92;78.22;100284.13;6282153;20;2747126;-58
2023/10/01 18:51:20;;;;;;;;;10.00;6.00;;;;;13.80;78.91;100280.41;6284951;20;2766002;-57
2023/10/01 18:53:48;;;;;;;;;26.50;22.50;;;;;13.37;81.90;100277.78;6282865;20;2842978;-59
2023/10/01 18:56:16;;;;;;;;;18.00;15.50;;;;;13.16;83.03;100273.72;6275963;20;2490264;-58
2023/10/01 18:58:50;;;;;;;;;10.00;7.00;;;;;13.04;84.07;100275.34;6281735;20;2763838;-58
2023/10/01 19:01:25;;;;;;;;;9.43;8.14;;;;;12.76;85.36;100281.56;6327635;20;3477468;-57
2023/10/01 19:03:53;;;;;;;;;15.00;14.00;;;;;13.05;84.40;100287.00;6317141;20;2805506;-57
2023/10/01 19:06:21;;;;;;;;;8.50;7.00;;;;;13.10;84.22;100280.34;6281217;20;2744054;-58
2023/10/01 19:08:49;;;;;;;;;11.33;8.00;;;;;13.26;84.10;100285.69;6278560;20;2766032;-58
2023/10/01 19:11:17;;;;;;;;;12.00;10.00;;;;;13.06;83.69;100286.91;6315307;20;2782556;-57
2023/10/01 19:13:48;;;;;;;;;9.33;9.33;;;;;12.96;84.02;100283.91;6278885;20;3484600;-57
2023/10/01 19:16:17;;;;;;;;;10.67;10.33;;;;;12.81;84.98;100282.16;6310439;20;2781558;-57
2023/10/01 19:18:45;;;;;;;;;10.00;9.00;;;;;13.42;83.44;100290.97;6319756;20;2576447;-56
2023/10/01 19:21:20;;;;;;;;;10.00;7.00;;;;;13.10;84.48;100295.66;6282133;20;2763834;-55
2023/10/01 19:23:55;;;;;;;;;9.00;7.00;;;;;13.27;83.57;100286.53;6281629;20;2753562;-55
2023/10/01 19:26:27;;;;;;;;;11.50;11.00;;;;;13.07;85.51;100285.09;6281221;20;2786809;-54
2023/10/01 19:28:57;;;;;;;;;9.20;8.00;;;;;13.28;84.46;100289.16;6307257;20;2759624;-56
2023/10/01 19:31:25;;;;;;;;;11.50;11.00;;;;;13.33;83.94;100284.34;6282321;20;2787796;-56
2023/10/01 19:33:53;;;;;;;;;13.00;10.50;;;;;13.19;84.21;100295.06;6283138;20;2791016;-54
2023/10/01 19:36:27;;;;;;;;;12.00;11.00;;;;;13.18;84.62;100287.97;6278144;20;3516339;-55
2023/10/01 19:38:59;;;;;;;;;13.00;11.33;;;;;13.02;85.24;100289.88;6311935;20;3503391;-54
2023/10/01 19:41:31;;;;;;;;;17.67;13.00;;;;;12.91;85.87;100285.16;6309030;20;3523219;-55
2023/10/01 19:44:12;;;;;;;;;12.67;10.67;;;;;12.78;87.37;100298.53;6308769;20;3518028;-54
2023/10/01 19:46:41;;;;;;;;;13.33;9.00;;;;;12.82;87.42;100297.38;6310118;20;3491993;-55
2023/10/01 19:49:13;;;;;;;;;13.50;10.00;;;;;13.17;86.42;100297.03;6315883;20;2784680;-56
2023/10/01 19:51:42;;;;;;;;;16.50;13.00;;;;;12.91;86.05;100296.81;6283660;20;2802432;-56
2023/10/01 19:54:12;;;;;;;;;14.00;13.00;;;;;12.41;87.59;100298.03;6283985;20;2791978;-55
2023/10/01 19:56:41;;;;;;;;;13.33;7.00;;;;;12.80;87.84;100299.31;6275942;20;2796190;-54
2023/10/01 19:59:21;;;;;;;;;17.00;15.67;;;;;12.14;88.97;100291.56;6308997;20;2822273;-55
2023/10/01 20:01:49;;;;;;;;;20.50;19.50;;;;;11.97;90.39;100284.50;6314239;20;2825296;-55
2023/10/01 20:04:20;;;;;;;;;16.00;12.00;;;;;12.00;91.50;100282.47;6285072;20;2795055;-55
2023/10/01 20:06:49;;;;;;;;;13.00;8.00;;;;;12.03;90.04;100293.09;6277498;20;2759141;-54
2023/10/01 20:09:27;;;;;;;;;13.00;7.40;;;;;12.44;88.49;100281.69;6301659;20;2787910;-56
2023/10/01 20:11:57;;;;;;;;;26.00;21.33;;;;;11.98;90.54;100283.53;6280772;20;3585687;-56
2023/10/01 20:14:28;;;;;;;;;15.00;15.00;;;;;11.91;90.85;100277.66;6279230;20;2500393;-55
2023/10/01 20:16:57;;;;;;;;;29.67;27.33;;;;;11.65;91.81;100279.97;6277840;20;3602384;-55
2023/10/01 20:19:32;;;;;;;;;22.67;20.33;;;;;12.42;90.74;100283.59;6278473;20;3575356;-55
2023/10/01 20:22:19;;;;;;;;;31.00;24.67;;;;;12.60;88.66;100288.84;6276127;20;2862817;-54
2023/10/01 20:24:55;;;;;;;;;16.67;14.00;;;;;12.63;88.04;100283.28;6313196;20;2794150;-55
2023/10/01 20:27:27;;;;;;;;;17.67;13.00;;;;;12.36;89.53;100283.97;6308914;20;3539845;-55
